Terminal Aerodrome Forecast
Issued by NWS

Home | Current Version | Previous Version | Text Only | Print | Product List | Glossary On
Versions: 1 2 3 4 5 6 7 8 9 10 11 12 13 14 15 16 17
000
FTUS44 KTSA 012300
TAFFYV
TAF
KFYV 012337Z 0200/0224 VRB03KT P6SM SCT045
     FM020600 VRB03KT P6SM BKN035
      TEMPO 0210/0214 2SM BR BKN015
     FM021400 16003KT P6SM SCT018 BKN025
     FM021600 18007KT P6SM BKN035=

USA.gov is the U.S. government's official web portal to all federal, state and local government web resources and services.